createdAt,value
2023-03-05T00:01:16.327Z,4.50
2023-03-05T00:05:21.660Z,5.60
2023-03-05T00:09:27.109Z,3.10
2023-03-05T00:13:32.561Z,4.00
2023-03-05T00:17:37.899Z,7.40
2023-03-05T00:21:45.435Z,3.70
2023-03-05T00:25:50.773Z,4.20
2023-03-05T00:29:56.128Z,1.30
2023-03-05T00:34:02.923Z,2.60
2023-03-05T00:38:08.373Z,3.30
2023-03-05T00:42:13.637Z,2.90
2023-03-05T00:46:19.246Z,9.20
2023-03-05T00:50:24.688Z,4.40
2023-03-05T00:54:30.004Z,1.90
2023-03-05T00:58:35.289Z,2.50
2023-03-05T01:02:40.622Z,3.50
2023-03-05T01:06:46.845Z,9.20
2023-03-05T01:10:52.306Z,2.30
2023-03-05T01:14:57.575Z,2.10
2023-03-05T01:19:02.983Z,2.80
2023-03-05T01:23:08.251Z,8.20
2023-03-05T01:27:13.471Z,4.30
2023-03-05T01:31:18.760Z,4.10
2023-03-05T01:35:25.119Z,4.20
2023-03-05T01:39:30.347Z,4.90
2023-03-05T01:43:35.561Z,5.80
2023-03-05T01:47:40.875Z,4.00
2023-03-05T01:51:50.450Z,5.60
2023-03-05T01:55:56.322Z,6.50
2023-03-05T02:00:04.045Z,4.70
2023-03-05T02:04:10.198Z,6.30
2023-03-05T02:08:16.540Z,7.00
2023-03-05T02:12:21.998Z,4.80
2023-03-05T02:16:27.473Z,7.30
2023-03-05T02:20:43.388Z,6.20
2023-03-05T02:24:48.621Z,6.10
2023-03-05T02:28:55.640Z,5.10
2023-03-05T02:33:00.919Z,4.40
2023-03-05T02:37:09.169Z,9.70
2023-03-05T02:41:14.536Z,6.50
2023-03-05T02:45:19.827Z,7.40
2023-03-05T02:49:25.081Z,8.20
2023-03-05T02:53:30.332Z,4.70
2023-03-05T02:57:35.600Z,5.70
2023-03-05T03:01:40.848Z,5.60
2023-03-05T03:05:46.094Z,6.10
2023-03-05T03:09:51.433Z,10.50
2023-03-05T03:13:56.745Z,6.70
2023-03-05T03:18:01.982Z,5.10
2023-03-05T03:22:08.296Z,5.10
2023-03-05T03:26:13.565Z,5.50
2023-03-05T03:30:19.211Z,6.40
2023-03-05T03:34:24.708Z,6.30
2023-03-05T03:38:30.183Z,7.50
2023-03-05T03:42:35.385Z,8.80
2023-03-05T03:46:41.103Z,7.10
2023-03-05T03:50:46.381Z,8.30
2023-03-05T03:54:53.188Z,6.30
2023-03-05T04:03:02.014Z,4.70
2023-03-05T04:07:07.346Z,7.10
2023-03-05T04:11:12.572Z,5.40
2023-03-05T04:15:17.838Z,4.80
2023-03-05T04:19:23.391Z,7.30
2023-03-05T04:23:28.668Z,6.70
2023-03-05T04:27:34.690Z,7.00
2023-03-05T04:31:39.933Z,7.40
2023-03-05T04:35:45.134Z,3.20
2023-03-05T04:39:50.484Z,9.40
2023-03-05T04:43:55.733Z,8.30
2023-03-05T04:48:01.047Z,5.80
2023-03-05T04:52:06.464Z,3.90
2023-03-05T04:56:11.685Z,10.70
2023-03-05T05:00:17.980Z,6.90
2023-03-05T05:04:23.266Z,6.50
2023-03-05T05:08:29.070Z,6.50
2023-03-05T05:12:34.417Z,4.60
2023-03-05T05:16:39.657Z,10.80
2023-03-05T05:20:44.866Z,6.10
2023-03-05T05:24:50.081Z,8.30
2023-03-05T05:28:55.327Z,7.70
2023-03-05T05:33:00.522Z,9.00
2023-03-05T05:37:06.052Z,6.40
2023-03-05T05:41:13.179Z,4.90
2023-03-05T05:45:18.515Z,4.70
2023-03-05T05:49:23.831Z,3.80
2023-03-05T05:53:29.061Z,5.50
2023-03-05T05:57:35.177Z,3.50
2023-03-05T06:01:40.638Z,5.30
2023-03-05T06:05:47.716Z,10.70
2023-03-05T06:09:52.941Z,6.40
2023-03-05T06:13:58.362Z,4.20
2023-03-05T06:18:03.601Z,7.10
2023-03-05T06:22:09.240Z,6.50
2023-03-05T06:26:15.434Z,7.90
2023-03-05T06:30:20.948Z,4.10
2023-03-05T06:34:26.212Z,7.70
2023-03-05T06:38:31.741Z,1.50
2023-03-05T06:42:37.354Z,4.90
2023-03-05T06:46:42.944Z,6.20
2023-03-05T06:50:48.184Z,5.40
2023-03-05T06:54:55.856Z,7.90
2023-03-05T06:59:01.070Z,4.50
2023-03-05T07:03:06.297Z,6.10
2023-03-05T07:07:11.612Z,4.70
2023-03-05T07:11:19.080Z,6.30
2023-03-05T07:15:24.397Z,7.00
2023-03-05T07:19:29.691Z,7.90
2023-03-05T07:23:35.279Z,6.10
2023-03-05T07:27:40.494Z,6.60
2023-03-05T07:31:45.833Z,9.10
2023-03-05T07:35:51.165Z,9.90
2023-03-05T07:39:56.420Z,7.70
2023-03-05T07:44:01.637Z,6.30
2023-03-05T07:48:07.078Z,5.70
2023-03-05T07:52:12.296Z,4.60
2023-03-05T07:56:21.952Z,6.60
2023-03-05T08:00:27.305Z,5.60
2023-03-05T08:04:32.785Z,4.10
2023-03-05T08:08:38.185Z,7.00
2023-03-05T08:12:43.413Z,6.70
2023-03-05T08:16:52.302Z,6.90
2023-03-05T08:20:58.145Z,7.30
2023-03-05T08:25:03.671Z,5.80
2023-03-05T08:29:09.317Z,8.50
2023-03-05T08:33:14.694Z,6.20
2023-03-05T08:37:19.918Z,6.00
2023-03-05T08:41:25.198Z,7.50
2023-03-05T08:45:30.571Z,6.70
2023-03-05T08:49:35.906Z,5.00
2023-03-05T08:53:41.580Z,10.40
2023-03-05T08:57:46.940Z,4.70
2023-03-05T09:01:52.800Z,8.30
2023-03-05T09:06:02.053Z,7.00
2023-03-05T09:10:08.173Z,6.30
2023-03-05T09:18:17.625Z,10.90
2023-03-05T09:22:22.982Z,8.90
2023-03-05T09:26:28.347Z,9.30
2023-03-05T09:30:35.177Z,8.70
2023-03-05T09:34:40.505Z,7.80
2023-03-05T09:38:45.805Z,8.10
2023-03-05T09:43:02.572Z,7.70
2023-03-05T09:47:14.745Z,6.80
2023-03-05T09:55:28.303Z,6.00
2023-03-05T09:59:36.101Z,8.60
2023-03-05T10:03:46.475Z,5.70
2023-03-05T10:07:54.785Z,4.30
2023-03-05T10:12:03.486Z,4.90
2023-03-05T10:16:22.060Z,7.60
2023-03-05T10:20:36.582Z,6.60
2023-03-05T10:24:44.745Z,5.40
2023-03-05T10:28:56.367Z,5.90
2023-03-05T10:33:07.283Z,8.30
2023-03-05T10:37:20.818Z,7.20
2023-03-05T10:41:30.371Z,6.00
2023-03-05T10:45:37.401Z,5.00
2023-03-05T10:49:47.123Z,5.20
2023-03-05T10:53:56.014Z,4.70
2023-03-05T10:58:02.126Z,6.80
2023-03-05T11:06:13.029Z,6.20
2023-03-05T11:10:21.407Z,6.60
2023-03-05T11:14:33.299Z,7.20
2023-03-05T11:18:38.539Z,7.90
2023-03-05T11:22:43.841Z,6.90
2023-03-05T11:26:53.465Z,5.70
2023-03-05T11:31:00.100Z,5.70
2023-03-05T11:35:23.289Z,6.50
2023-03-05T11:39:30.517Z,5.60
2023-03-05T11:43:37.910Z,5.30
2023-03-05T11:47:45.005Z,7.50
2023-03-05T11:51:55.869Z,6.00
2023-03-05T11:56:05.131Z,4.40
2023-03-05T12:00:14.515Z,4.80
2023-03-05T12:04:20.221Z,5.80
2023-03-05T12:08:28.300Z,5.20
2023-03-05T12:12:37.617Z,5.80
2023-03-05T12:16:45.216Z,6.20
2023-03-05T12:20:56.865Z,4.40
2023-03-05T12:25:15.610Z,8.10
2023-03-05T12:29:30.706Z,6.70
2023-03-05T12:33:37.687Z,8.90
2023-03-05T12:38:00.897Z,5.80
2023-03-05T12:42:38.133Z,7.60
2023-03-05T12:46:44.037Z,8.40
2023-03-05T12:50:59.222Z,8.40
2023-03-05T12:55:14.945Z,7.00
2023-03-05T12:59:21.636Z,5.70
2023-03-05T13:03:28.906Z,5.00
2023-03-05T13:07:34.125Z,5.20
2023-03-05T13:11:40.231Z,6.20
2023-03-05T13:15:48.312Z,7.80
2023-03-05T13:19:53.798Z,6.20
2023-03-05T13:23:59.794Z,6.10
2023-03-05T13:28:24.378Z,7.10
2023-03-05T13:32:44.136Z,5.80
2023-03-05T13:41:20.912Z,5.50
2023-03-05T13:45:27.868Z,5.30
2023-03-05T13:49:39.671Z,6.40
2023-03-05T13:53:45.033Z,3.70
2023-03-05T13:58:03.413Z,7.10
2023-03-05T14:02:17.127Z,7.00
2023-03-05T14:06:42.225Z,5.60
2023-03-05T14:11:04.155Z,6.80
2023-03-05T14:24:25.589Z,5.40
2023-03-05T14:28:56.614Z,3.70
2023-03-05T14:33:27.637Z,5.20
2023-03-05T14:38:02.786Z,6.70
2023-03-05T14:42:25.192Z,6.40
2023-03-05T14:46:45.267Z,6.40
2023-03-05T14:50:56.345Z,4.60
2023-03-05T14:55:16.858Z,8.60
2023-03-05T14:59:22.412Z,5.10
2023-03-05T15:07:44.279Z,5.70
2023-03-05T15:11:49.657Z,5.60
2023-03-05T15:15:59.644Z,5.70
2023-03-05T15:20:10.002Z,3.10
2023-03-05T15:24:15.615Z,6.00
2023-03-05T15:28:24.497Z,6.00
2023-03-05T15:32:30.768Z,11.80
2023-03-05T15:36:36.028Z,5.70
2023-03-05T15:40:41.372Z,6.90
2023-03-05T15:44:46.793Z,5.00
2023-03-05T15:49:03.391Z,7.60
2023-03-05T15:53:09.190Z,5.40
2023-03-05T15:57:30.390Z,6.10
2023-03-05T16:01:35.750Z,3.50
2023-03-05T16:05:55.425Z,6.80
2023-03-05T16:10:00.794Z,5.30
2023-03-05T16:14:07.979Z,7.60
2023-03-05T16:18:15.529Z,6.30
2023-03-05T16:22:20.784Z,5.60
2023-03-05T16:26:26.105Z,8.10
2023-03-05T16:30:33.212Z,7.90
2023-03-05T16:34:38.422Z,4.50
2023-03-05T16:38:43.755Z,6.00
2023-03-05T16:42:50.082Z,4.30
2023-03-05T16:46:56.551Z,5.70
2023-03-05T16:51:01.941Z,5.70
2023-03-05T16:55:07.964Z,6.70
2023-03-05T16:59:13.429Z,5.50
2023-03-05T17:03:18.975Z,9.40
2023-03-05T17:07:25.559Z,8.30
2023-03-05T17:11:30.949Z,6.60
2023-03-05T17:15:36.257Z,8.00
2023-03-05T17:19:41.621Z,7.10
2023-03-05T17:23:47.160Z,8.00
2023-03-05T17:27:52.595Z,8.70
2023-03-05T17:31:58.017Z,14.30
2023-03-05T17:36:04.011Z,10.80
2023-03-05T17:40:11.870Z,10.10
2023-03-05T17:44:17.150Z,15.30
2023-03-05T17:48:22.820Z,3.30
2023-03-05T17:52:29.115Z,10.40
2023-03-05T17:56:34.371Z,9.20
2023-03-05T18:00:39.762Z,9.60
2023-03-05T18:04:47.448Z,7.70
2023-03-05T18:08:53.391Z,12.10
2023-03-05T18:12:58.949Z,7.60
2023-03-05T18:17:04.195Z,7.80
2023-03-05T18:21:09.457Z,6.90
2023-03-05T18:25:15.265Z,13.20
2023-03-05T18:29:20.498Z,8.30
2023-03-05T18:33:26.114Z,10.20
2023-03-05T18:37:31.362Z,10.90
2023-03-05T18:41:37.339Z,15.30
2023-03-05T18:45:42.649Z,15.10
2023-03-05T18:49:47.884Z,10.00
2023-03-05T18:53:55.124Z,12.10
2023-03-05T18:58:00.520Z,11.80
2023-03-05T19:02:05.819Z,14.30
2023-03-05T19:06:11.109Z,12.00
2023-03-05T19:10:18.095Z,15.80
2023-03-05T19:14:23.871Z,14.60
2023-03-05T19:18:33.484Z,11.90
2023-03-05T19:22:38.750Z,11.20
2023-03-05T19:26:44.101Z,12.70
2023-03-05T19:30:51.638Z,9.50
2023-03-05T19:34:57.777Z,15.80
2023-03-05T19:39:04.006Z,12.80
2023-03-05T19:43:09.536Z,11.90
2023-03-05T19:47:14.997Z,12.30
2023-03-05T19:51:22.364Z,15.20
2023-03-05T19:55:27.707Z,15.90
2023-03-05T19:59:33.003Z,10.70
2023-03-05T20:03:41.097Z,16.90
2023-03-05T20:07:46.895Z,15.50
2023-03-05T20:11:52.448Z,17.10
2023-03-05T20:15:57.867Z,14.00
2023-03-05T20:20:03.215Z,16.70
2023-03-05T20:24:10.083Z,11.20
2023-03-05T20:28:15.556Z,14.80
2023-03-05T20:32:21.029Z,15.60
2023-03-05T20:36:26.629Z,15.80
2023-03-05T20:40:31.879Z,18.90
2023-03-05T20:44:37.233Z,17.80
2023-03-05T20:48:42.600Z,11.90
2023-03-05T20:52:48.026Z,10.80
2023-03-05T20:56:53.355Z,14.20
2023-03-05T21:00:58.862Z,13.80
2023-03-05T21:05:04.412Z,21.00
2023-03-05T21:09:09.685Z,12.60
2023-03-05T21:13:15.182Z,15.40
2023-03-05T21:17:20.707Z,14.10
2023-03-05T21:21:26.170Z,18.40
2023-03-05T21:25:32.756Z,15.60
2023-03-05T21:29:38.050Z,17.30
2023-03-05T21:33:43.353Z,13.80
2023-03-05T21:37:48.995Z,12.30
2023-03-05T21:41:54.627Z,14.60
2023-03-05T21:46:00.677Z,12.00
2023-03-05T21:50:06.667Z,11.30
2023-03-05T21:54:11.960Z,9.70
2023-03-05T21:58:17.501Z,15.10
2023-03-05T22:02:23.475Z,11.00
2023-03-05T22:06:28.793Z,18.00
2023-03-05T22:10:34.119Z,14.50
2023-03-05T22:14:39.388Z,13.60
2023-03-05T22:18:44.638Z,16.60
2023-03-05T22:22:50.222Z,15.60
2023-03-05T22:26:55.482Z,12.40
2023-03-05T22:31:01.064Z,6.10
2023-03-05T22:35:07.542Z,10.90
2023-03-05T22:39:12.827Z,8.20
2023-03-05T22:43:19.121Z,14.70
2023-03-05T22:47:24.909Z,10.60
2023-03-05T22:51:30.256Z,11.10
2023-03-05T22:55:35.535Z,15.50
2023-03-05T22:59:40.811Z,15.20
2023-03-05T23:03:47.161Z,17.00
2023-03-05T23:07:52.653Z,18.00
2023-03-05T23:11:57.952Z,14.50
2023-03-05T23:16:03.361Z,17.50
2023-03-05T23:20:11.651Z,12.60
2023-03-05T23:24:17.184Z,12.00
2023-03-05T23:28:22.648Z,11.90
2023-03-05T23:32:30.158Z,11.40
2023-03-05T23:36:35.550Z,13.60
2023-03-05T23:40:42.040Z,13.90
2023-03-05T23:44:47.516Z,16.20
2023-03-05T23:48:52.848Z,10.00
2023-03-05T23:53:00.000Z,15.80
2023-03-05T23:57:07.236Z,18.50
